KJAS/JAS METAR and TAF weather

Enter ICAO airport designator
Station Type Date Time Source
KJAS METAR 2024/04/15 07:55 UTC NOAA

KJAS 150755Z AUTO 00000KT 8SM OVC022 19/19 A2994 RMK AO2


Station Type Date Time Source
KJAS Decoded METAR 2024/04/15 07:55 UTC NOAA

Jasper, Jasper County-Bell Field Airport, TX, United States (KJAS) 30-53-08N 094-02-05W
Apr 15, 2024 - 03:55 AM EDT / 2024.04.15 0755 UTC
Wind: Calm:0
Visibility: 8 mile(s):0
Sky conditions: overcast
Temperature: 66 F (19 C)
Dew Point: 66 F (19 C)
Relative Humidity: 100%
Pressure (altimeter): 29.94 in. Hg (1013 hPa)
ob: KJAS 150755Z AUTO 00000KT 8SM OVC022 19/19 A2994 RMK AO2
cycle: 8

Station Type Date Time Source
KJAS TAF UTC NOAA

Error!

Example: see airport list